sensor_id;sensor_type;location;lat;lon;timestamp;P1;durP1;ratioP1;P2;durP2;ratioP2
35326;SDS011;21436;52.348;20.928;2023-02-03T00:00:14;17.58;;;8.23;;
35326;SDS011;21436;52.348;20.928;2023-02-03T00:03:03;18.30;;;7.95;;
35326;SDS011;21436;52.348;20.928;2023-02-03T00:05:31;14.20;;;7.82;;
35326;SDS011;21436;52.348;20.928;2023-02-03T00:08:01;12.52;;;6.90;;
35326;SDS011;21436;52.348;20.928;2023-02-03T00:10:32;13.85;;;7.00;;
35326;SDS011;21436;52.348;20.928;2023-02-03T00:13:01;14.45;;;7.45;;
35326;SDS011;21436;52.348;20.928;2023-02-03T00:15:29;15.15;;;6.88;;
35326;SDS011;21436;52.348;20.928;2023-02-03T00:17:57;14.30;;;7.68;;
35326;SDS011;21436;52.348;20.928;2023-02-03T00:20:25;17.23;;;7.13;;
35326;SDS011;21436;52.348;20.928;2023-02-03T00:22:54;12.07;;;7.15;;
35326;SDS011;21436;52.348;20.928;2023-02-03T00:25:22;12.40;;;6.82;;
35326;SDS011;21436;52.348;20.928;2023-02-03T00:27:50;15.48;;;7.25;;
35326;SDS011;21436;52.348;20.928;2023-02-03T00:30:18;14.20;;;5.70;;
35326;SDS011;21436;52.348;20.928;2023-02-03T00:32:46;10.55;;;5.85;;
35326;SDS011;21436;52.348;20.928;2023-02-03T00:35:14;12.88;;;6.10;;
35326;SDS011;21436;52.348;20.928;2023-02-03T00:37:42;12.70;;;6.05;;
35326;SDS011;21436;52.348;20.928;2023-02-03T00:40:11;10.05;;;6.53;;
35326;SDS011;21436;52.348;20.928;2023-02-03T00:42:39;8.35;;;6.13;;
35326;SDS011;21436;52.348;20.928;2023-02-03T00:45:08;9.63;;;5.70;;
35326;SDS011;21436;52.348;20.928;2023-02-03T00:47:36;10.50;;;5.82;;
35326;SDS011;21436;52.348;20.928;2023-02-03T00:50:04;14.68;;;6.07;;
35326;SDS011;21436;52.348;20.928;2023-02-03T00:52:34;11.20;;;5.80;;
35326;SDS011;21436;52.348;20.928;2023-02-03T00:55:03;16.17;;;5.95;;
35326;SDS011;21436;52.348;20.928;2023-02-03T00:57:32;12.35;;;5.05;;
35326;SDS011;21436;52.348;20.928;2023-02-03T01:00:00;9.77;;;4.82;;
35326;SDS011;21436;52.348;20.928;2023-02-03T01:02:28;8.70;;;5.10;;
35326;SDS011;21436;52.348;20.928;2023-02-03T01:04:56;9.07;;;4.43;;
35326;SDS011;21436;52.348;20.928;2023-02-03T01:07:25;9.48;;;4.80;;
35326;SDS011;21436;52.348;20.928;2023-02-03T01:09:53;10.77;;;4.53;;
35326;SDS011;21436;52.348;20.928;2023-02-03T01:12:21;9.95;;;5.60;;
35326;SDS011;21436;52.348;20.928;2023-02-03T01:14:49;7.47;;;4.97;;
35326;SDS011;21436;52.348;20.928;2023-02-03T01:17:17;10.07;;;4.72;;
35326;SDS011;21436;52.348;20.928;2023-02-03T01:19:46;10.60;;;5.18;;
35326;SDS011;21436;52.348;20.928;2023-02-03T01:22:15;8.27;;;5.20;;
35326;SDS011;21436;52.348;20.928;2023-02-03T01:24:44;9.57;;;5.30;;
35326;SDS011;21436;52.348;20.928;2023-02-03T01:27:12;12.50;;;4.88;;
35326;SDS011;21436;52.348;20.928;2023-02-03T01:29:40;10.48;;;4.68;;
35326;SDS011;21436;52.348;20.928;2023-02-03T01:32:08;8.70;;;5.03;;
35326;SDS011;21436;52.348;20.928;2023-02-03T01:34:36;8.68;;;5.10;;
35326;SDS011;21436;52.348;20.928;2023-02-03T01:37:05;11.07;;;4.60;;
35326;SDS011;21436;52.348;20.928;2023-02-03T01:39:34;9.90;;;4.50;;
35326;SDS011;21436;52.348;20.928;2023-02-03T01:42:02;9.88;;;4.68;;
35326;SDS011;21436;52.348;20.928;2023-02-03T01:44:37;6.85;;;4.18;;
35326;SDS011;21436;52.348;20.928;2023-02-03T01:47:10;6.82;;;4.38;;
35326;SDS011;21436;52.348;20.928;2023-02-03T01:49:46;7.63;;;4.07;;
35326;SDS011;21436;52.348;20.928;2023-02-03T01:52:18;9.70;;;4.00;;
35326;SDS011;21436;52.348;20.928;2023-02-03T01:54:47;7.55;;;4.38;;
35326;SDS011;21436;52.348;20.928;2023-02-03T01:57:31;7.95;;;4.35;;
35326;SDS011;21436;52.348;20.928;2023-02-03T02:00:02;8.27;;;4.15;;
35326;SDS011;21436;52.348;20.928;2023-02-03T02:02:39;6.25;;;3.78;;
35326;SDS011;21436;52.348;20.928;2023-02-03T02:05:24;8.45;;;3.53;;
35326;SDS011;21436;52.348;20.928;2023-02-03T02:07:56;8.82;;;3.75;;
35326;SDS011;21436;52.348;20.928;2023-02-03T02:10:27;7.70;;;3.83;;
35326;SDS011;21436;52.348;20.928;2023-02-03T02:12:57;8.15;;;3.13;;
35326;SDS011;21436;52.348;20.928;2023-02-03T02:30:31;6.50;;;2.85;;
35326;SDS011;21436;52.348;20.928;2023-02-03T02:41:47;5.65;;;2.80;;
35326;SDS011;21436;52.348;20.928;2023-02-03T02:44:24;8.57;;;3.40;;
35326;SDS011;21436;52.348;20.928;2023-02-03T02:46:56;6.75;;;2.70;;
35326;SDS011;21436;52.348;20.928;2023-02-03T02:49:47;8.27;;;3.03;;
35326;SDS011;21436;52.348;20.928;2023-02-03T02:52:20;5.57;;;2.85;;
35326;SDS011;21436;52.348;20.928;2023-02-03T02:54:51;6.10;;;2.60;;
35326;SDS011;21436;52.348;20.928;2023-02-03T02:57:24;5.28;;;2.97;;
35326;SDS011;21436;52.348;20.928;2023-02-03T02:59:54;6.07;;;2.95;;
35326;SDS011;21436;52.348;20.928;2023-02-03T03:02:30;8.10;;;3.20;;
35326;SDS011;21436;52.348;20.928;2023-02-03T03:05:03;6.50;;;2.92;;
35326;SDS011;21436;52.348;20.928;2023-02-03T03:07:41;12.23;;;2.88;;
35326;SDS011;21436;52.348;20.928;2023-02-03T03:10:17;5.50;;;2.72;;
35326;SDS011;21436;52.348;20.928;2023-02-03T03:12:50;8.60;;;3.30;;
35326;SDS011;21436;52.348;20.928;2023-02-03T03:15:25;7.65;;;2.70;;
35326;SDS011;21436;52.348;20.928;2023-02-03T03:18:00;6.15;;;2.97;;
35326;SDS011;21436;52.348;20.928;2023-02-03T03:20:32;7.53;;;2.85;;
35326;SDS011;21436;52.348;20.928;2023-02-03T03:23:02;5.30;;;2.75;;
35326;SDS011;21436;52.348;20.928;2023-02-03T03:25:43;7.28;;;3.38;;
35326;SDS011;21436;52.348;20.928;2023-02-03T03:28:20;9.32;;;3.35;;
35326;SDS011;21436;52.348;20.928;2023-02-03T03:30:53;6.82;;;2.95;;
35326;SDS011;21436;52.348;20.928;2023-02-03T03:33:21;7.93;;;3.25;;
35326;SDS011;21436;52.348;20.928;2023-02-03T03:39:01;10.82;;;4.10;;
35326;SDS011;21436;52.348;20.928;2023-02-03T03:41:43;6.68;;;3.53;;
35326;SDS011;21436;52.348;20.928;2023-02-03T03:44:18;7.57;;;3.65;;
35326;SDS011;21436;52.348;20.928;2023-02-03T03:46:50;7.70;;;3.33;;
35326;SDS011;21436;52.348;20.928;2023-02-03T03:49:22;6.88;;;3.97;;
35326;SDS011;21436;52.348;20.928;2023-02-03T03:51:54;10.50;;;4.05;;
35326;SDS011;21436;52.348;20.928;2023-02-03T03:54:24;9.27;;;4.22;;
35326;SDS011;21436;52.348;20.928;2023-02-03T03:57:00;9.88;;;4.07;;
35326;SDS011;21436;52.348;20.928;2023-02-03T03:59:33;8.00;;;3.75;;
35326;SDS011;21436;52.348;20.928;2023-02-03T04:02:03;12.90;;;4.75;;
35326;SDS011;21436;52.348;20.928;2023-02-03T04:04:33;10.95;;;4.53;;
35326;SDS011;21436;52.348;20.928;2023-02-03T04:07:03;11.43;;;4.88;;
35326;SDS011;21436;52.348;20.928;2023-02-03T04:09:31;12.82;;;4.70;;
35326;SDS011;21436;52.348;20.928;2023-02-03T04:12:03;8.77;;;4.23;;
35326;SDS011;21436;52.348;20.928;2023-02-03T04:14:34;11.45;;;4.47;;
35326;SDS011;21436;52.348;20.928;2023-02-03T04:17:07;10.50;;;4.80;;
35326;SDS011;21436;52.348;20.928;2023-02-03T04:19:35;11.98;;;4.95;;
35326;SDS011;21436;52.348;20.928;2023-02-03T04:22:05;10.80;;;4.82;;
35326;SDS011;21436;52.348;20.928;2023-02-03T04:24:33;13.48;;;5.30;;
35326;SDS011;21436;52.348;20.928;2023-02-03T04:27:01;9.43;;;4.70;;
35326;SDS011;21436;52.348;20.928;2023-02-03T04:29:31;11.57;;;4.80;;
35326;SDS011;21436;52.348;20.928;2023-02-03T04:31:59;9.80;;;4.78;;
35326;SDS011;21436;52.348;20.928;2023-02-03T04:34:27;12.43;;;5.70;;
35326;SDS011;21436;52.348;20.928;2023-02-03T04:36:55;14.20;;;6.28;;
35326;SDS011;21436;52.348;20.928;2023-02-03T04:39:23;15.15;;;6.05;;
35326;SDS011;21436;52.348;20.928;2023-02-03T04:41:51;15.07;;;5.65;;
35326;SDS011;21436;52.348;20.928;2023-02-03T04:44:19;15.90;;;6.97;;
35326;SDS011;21436;52.348;20.928;2023-02-03T04:46:47;16.60;;;6.70;;
35326;SDS011;21436;52.348;20.928;2023-02-03T04:49:15;14.25;;;7.00;;
35326;SDS011;21436;52.348;20.928;2023-02-03T04:51:44;15.63;;;6.18;;
35326;SDS011;21436;52.348;20.928;2023-02-03T04:54:11;15.57;;;6.03;;
35326;SDS011;21436;52.348;20.928;2023-02-03T04:56:40;12.82;;;6.57;;
35326;SDS011;21436;52.348;20.928;2023-02-03T04:59:08;19.30;;;7.22;;
35326;SDS011;21436;52.348;20.928;2023-02-03T05:01:36;17.45;;;7.90;;
35326;SDS011;21436;52.348;20.928;2023-02-03T05:04:04;16.85;;;8.07;;
35326;SDS011;21436;52.348;20.928;2023-02-03T05:06:32;19.02;;;8.90;;
35326;SDS011;21436;52.348;20.928;2023-02-03T05:09:00;20.35;;;8.05;;
35326;SDS011;21436;52.348;20.928;2023-02-03T05:11:29;16.80;;;7.50;;
35326;SDS011;21436;52.348;20.928;2023-02-03T05:13:57;12.80;;;7.47;;
35326;SDS011;21436;52.348;20.928;2023-02-03T05:16:25;17.42;;;7.70;;
35326;SDS011;21436;52.348;20.928;2023-02-03T05:18:54;14.57;;;7.25;;
35326;SDS011;21436;52.348;20.928;2023-02-03T05:21:22;15.88;;;7.22;;
35326;SDS011;21436;52.348;20.928;2023-02-03T05:23:50;13.10;;;7.45;;
35326;SDS011;21436;52.348;20.928;2023-02-03T05:26:18;11.40;;;6.70;;
35326;SDS011;21436;52.348;20.928;2023-02-03T05:28:47;15.98;;;8.90;;
35326;SDS011;21436;52.348;20.928;2023-02-03T05:31:16;17.10;;;7.43;;
35326;SDS011;21436;52.348;20.928;2023-02-03T05:33:45;20.67;;;8.73;;
35326;SDS011;21436;52.348;20.928;2023-02-03T05:36:13;18.83;;;7.97;;
35326;SDS011;21436;52.348;20.928;2023-02-03T05:38:41;15.50;;;7.93;;
35326;SDS011;21436;52.348;20.928;2023-02-03T05:41:10;14.70;;;7.35;;
35326;SDS011;21436;52.348;20.928;2023-02-03T05:43:57;19.73;;;7.72;;
35326;SDS011;21436;52.348;20.928;2023-02-03T05:46:26;16.27;;;7.68;;
35326;SDS011;21436;52.348;20.928;2023-02-03T05:48:53;16.30;;;7.40;;
35326;SDS011;21436;52.348;20.928;2023-02-03T05:51:21;16.15;;;7.68;;
35326;SDS011;21436;52.348;20.928;2023-02-03T05:53:49;14.40;;;7.88;;
35326;SDS011;21436;52.348;20.928;2023-02-03T05:56:17;15.45;;;8.00;;
35326;SDS011;21436;52.348;20.928;2023-02-03T05:58:45;16.35;;;8.02;;
35326;SDS011;21436;52.348;20.928;2023-02-03T06:01:13;16.00;;;7.68;;
35326;SDS011;21436;52.348;20.928;2023-02-03T06:03:41;15.95;;;7.63;;
35326;SDS011;21436;52.348;20.928;2023-02-03T06:06:12;17.13;;;7.88;;
35326;SDS011;21436;52.348;20.928;2023-02-03T06:08:41;18.65;;;8.23;;
35326;SDS011;21436;52.348;20.928;2023-02-03T06:11:10;18.50;;;8.88;;
35326;SDS011;21436;52.348;20.928;2023-02-03T06:13:38;17.77;;;8.32;;
35326;SDS011;21436;52.348;20.928;2023-02-03T06:16:06;17.15;;;8.75;;
35326;SDS011;21436;52.348;20.928;2023-02-03T06:18:34;22.00;;;9.00;;
35326;SDS011;21436;52.348;20.928;2023-02-03T06:21:03;22.25;;;9.82;;
35326;SDS011;21436;52.348;20.928;2023-02-03T06:23:33;20.85;;;9.57;;
35326;SDS011;21436;52.348;20.928;2023-02-03T06:26:01;19.90;;;10.32;;
35326;SDS011;21436;52.348;20.928;2023-02-03T06:28:29;21.40;;;9.73;;
35326;SDS011;21436;52.348;20.928;2023-02-03T06:31:00;25.75;;;10.20;;
35326;SDS011;21436;52.348;20.928;2023-02-03T06:33:29;19.48;;;9.55;;
35326;SDS011;21436;52.348;20.928;2023-02-03T06:35:58;27.55;;;11.50;;
35326;SDS011;21436;52.348;20.928;2023-02-03T06:38:26;26.50;;;10.57;;
35326;SDS011;21436;52.348;20.928;2023-02-03T06:40:54;31.23;;;11.70;;
35326;SDS011;21436;52.348;20.928;2023-02-03T06:43:22;26.33;;;12.02;;
35326;SDS011;21436;52.348;20.928;2023-02-03T06:45:51;22.08;;;11.40;;
35326;SDS011;21436;52.348;20.928;2023-02-03T06:48:19;29.83;;;11.50;;
35326;SDS011;21436;52.348;20.928;2023-02-03T06:50:47;24.60;;;11.05;;
35326;SDS011;21436;52.348;20.928;2023-02-03T06:53:21;23.42;;;11.20;;
35326;SDS011;21436;52.348;20.928;2023-02-03T06:55:51;24.70;;;11.77;;
35326;SDS011;21436;52.348;20.928;2023-02-03T06:58:19;25.17;;;11.05;;
35326;SDS011;21436;52.348;20.928;2023-02-03T07:00:47;28.30;;;12.50;;
35326;SDS011;21436;52.348;20.928;2023-02-03T07:03:15;24.50;;;10.90;;
35326;SDS011;21436;52.348;20.928;2023-02-03T07:05:44;24.73;;;11.43;;
35326;SDS011;21436;52.348;20.928;2023-02-03T07:08:12;25.42;;;11.82;;
35326;SDS011;21436;52.348;20.928;2023-02-03T07:10:40;25.67;;;12.27;;
35326;SDS011;21436;52.348;20.928;2023-02-03T07:13:08;28.08;;;12.15;;
35326;SDS011;21436;52.348;20.928;2023-02-03T07:15:36;25.45;;;11.60;;
35326;SDS011;21436;52.348;20.928;2023-02-03T07:18:08;30.75;;;12.27;;
35326;SDS011;21436;52.348;20.928;2023-02-03T07:20:36;28.42;;;12.20;;
35326;SDS011;21436;52.348;20.928;2023-02-03T07:23:04;31.13;;;12.55;;
35326;SDS011;21436;52.348;20.928;2023-02-03T07:25:32;25.70;;;12.10;;
35326;SDS011;21436;52.348;20.928;2023-02-03T07:28:00;23.80;;;11.13;;
35326;SDS011;21436;52.348;20.928;2023-02-03T07:30:28;25.58;;;11.32;;
35326;SDS011;21436;52.348;20.928;2023-02-03T07:32:57;23.13;;;11.10;;
35326;SDS011;21436;52.348;20.928;2023-02-03T07:35:25;24.27;;;10.90;;
35326;SDS011;21436;52.348;20.928;2023-02-03T07:37:53;24.27;;;11.30;;
35326;SDS011;21436;52.348;20.928;2023-02-03T07:40:21;20.65;;;9.55;;
35326;SDS011;21436;52.348;20.928;2023-02-03T07:42:49;23.95;;;10.98;;
35326;SDS011;21436;52.348;20.928;2023-02-03T07:45:18;20.73;;;9.43;;
35326;SDS011;21436;52.348;20.928;2023-02-03T07:47:46;24.15;;;9.95;;
35326;SDS011;21436;52.348;20.928;2023-02-03T07:50:15;21.20;;;10.02;;
35326;SDS011;21436;52.348;20.928;2023-02-03T07:52:43;19.38;;;9.15;;
35326;SDS011;21436;52.348;20.928;2023-02-03T07:55:11;20.33;;;9.13;;
35326;SDS011;21436;52.348;20.928;2023-02-03T07:57:39;23.17;;;8.90;;
35326;SDS011;21436;52.348;20.928;2023-02-03T08:00:11;20.10;;;7.65;;
35326;SDS011;21436;52.348;20.928;2023-02-03T08:02:41;22.02;;;9.57;;
35326;SDS011;21436;52.348;20.928;2023-02-03T08:05:10;21.40;;;9.00;;
35326;SDS011;21436;52.348;20.928;2023-02-03T08:07:39;20.95;;;9.18;;
35326;SDS011;21436;52.348;20.928;2023-02-03T08:10:08;17.63;;;9.73;;
35326;SDS011;21436;52.348;20.928;2023-02-03T08:12:37;20.33;;;9.48;;
35326;SDS011;21436;52.348;20.928;2023-02-03T08:15:05;20.58;;;8.60;;
35326;SDS011;21436;52.348;20.928;2023-02-03T08:17:34;25.75;;;10.55;;
35326;SDS011;21436;52.348;20.928;2023-02-03T08:20:02;16.58;;;8.88;;
35326;SDS011;21436;52.348;20.928;2023-02-03T08:22:30;17.40;;;8.30;;
35326;SDS011;21436;52.348;20.928;2023-02-03T08:24:58;20.50;;;8.88;;
35326;SDS011;21436;52.348;20.928;2023-02-03T08:27:27;18.15;;;9.38;;
35326;SDS011;21436;52.348;20.928;2023-02-03T08:29:55;18.10;;;9.13;;
35326;SDS011;21436;52.348;20.928;2023-02-03T08:32:23;20.38;;;8.80;;
35326;SDS011;21436;52.348;20.928;2023-02-03T08:34:52;18.13;;;8.57;;
35326;SDS011;21436;52.348;20.928;2023-02-03T08:37:21;18.08;;;8.07;;
35326;SDS011;21436;52.348;20.928;2023-02-03T08:42:21;15.25;;;7.57;;
35326;SDS011;21436;52.348;20.928;2023-02-03T08:44:49;13.15;;;7.45;;
35326;SDS011;21436;52.348;20.928;2023-02-03T08:47:17;16.83;;;7.38;;
35326;SDS011;21436;52.348;20.928;2023-02-03T08:49:45;12.85;;;6.78;;
35326;SDS011;21436;52.348;20.928;2023-02-03T08:52:13;14.27;;;7.35;;
35326;SDS011;21436;52.348;20.928;2023-02-03T08:54:45;15.27;;;6.97;;
35326;SDS011;21436;52.348;20.928;2023-02-03T08:57:13;14.57;;;7.03;;
35326;SDS011;21436;52.348;20.928;2023-02-03T08:59:43;15.23;;;6.55;;
35326;SDS011;21436;52.348;20.928;2023-02-03T09:02:15;16.85;;;6.32;;
35326;SDS011;21436;52.348;20.928;2023-02-03T09:04:45;14.35;;;5.97;;
35326;SDS011;21436;52.348;20.928;2023-02-03T09:07:13;14.60;;;5.55;;
35326;SDS011;21436;52.348;20.928;2023-02-03T09:09:42;13.70;;;5.47;;
35326;SDS011;21436;52.348;20.928;2023-02-03T09:12:10;11.65;;;5.45;;
35326;SDS011;21436;52.348;20.928;2023-02-03T09:14:39;12.95;;;6.43;;
35326;SDS011;21436;52.348;20.928;2023-02-03T09:17:08;15.57;;;6.10;;
35326;SDS011;21436;52.348;20.928;2023-02-03T09:19:37;13.00;;;5.40;;
35326;SDS011;21436;52.348;20.928;2023-02-03T09:22:05;12.38;;;5.68;;
35326;SDS011;21436;52.348;20.928;2023-02-03T09:24:34;13.52;;;5.78;;
35326;SDS011;21436;52.348;20.928;2023-02-03T09:27:02;13.77;;;5.57;;
35326;SDS011;21436;52.348;20.928;2023-02-03T09:29:30;12.63;;;5.72;;
35326;SDS011;21436;52.348;20.928;2023-02-03T09:31:58;14.23;;;5.95;;
35326;SDS011;21436;52.348;20.928;2023-02-03T09:34:27;11.55;;;5.20;;
35326;SDS011;21436;52.348;20.928;2023-02-03T09:36:55;11.35;;;4.95;;
35326;SDS011;21436;52.348;20.928;2023-02-03T09:39:23;10.57;;;5.25;;
35326;SDS011;21436;52.348;20.928;2023-02-03T09:47:51;11.07;;;4.43;;
35326;SDS011;21436;52.348;20.928;2023-02-03T09:50:26;9.27;;;3.85;;
35326;SDS011;21436;52.348;20.928;2023-02-03T09:52:55;10.80;;;4.25;;
35326;SDS011;21436;52.348;20.928;2023-02-03T09:58:00;6.78;;;3.05;;
35326;SDS011;21436;52.348;20.928;2023-02-03T10:00:34;10.60;;;3.70;;
35326;SDS011;21436;52.348;20.928;2023-02-03T10:03:07;6.60;;;3.53;;
35326;SDS011;21436;52.348;20.928;2023-02-03T10:05:47;6.70;;;2.97;;
35326;SDS011;21436;52.348;20.928;2023-02-03T10:11:37;5.82;;;2.90;;
35326;SDS011;21436;52.348;20.928;2023-02-03T10:20:10;7.03;;;2.80;;
35326;SDS011;21436;52.348;20.928;2023-02-03T10:22:50;8.25;;;3.53;;
35326;SDS011;21436;52.348;20.928;2023-02-03T10:27:59;5.00;;;2.72;;
35326;SDS011;21436;52.348;20.928;2023-02-03T10:30:30;8.18;;;3.53;;
35326;SDS011;21436;52.348;20.928;2023-02-03T10:33:08;3.78;;;2.47;;
35326;SDS011;21436;52.348;20.928;2023-02-03T10:35:46;7.22;;;2.50;;
35326;SDS011;21436;52.348;20.928;2023-02-03T10:38:23;5.57;;;2.00;;
35326;SDS011;21436;52.348;20.928;2023-02-03T10:41:01;4.97;;;2.28;;
35326;SDS011;21436;52.348;20.928;2023-02-03T10:43:30;11.90;;;2.50;;
35326;SDS011;21436;52.348;20.928;2023-02-03T10:48:53;5.78;;;2.28;;
35326;SDS011;21436;52.348;20.928;2023-02-03T10:51:29;4.95;;;1.90;;
35326;SDS011;21436;52.348;20.928;2023-02-03T10:54:03;5.15;;;2.42;;
35326;SDS011;21436;52.348;20.928;2023-02-03T10:56:33;5.35;;;2.15;;
35326;SDS011;21436;52.348;20.928;2023-02-03T10:59:04;3.47;;;1.92;;
35326;SDS011;21436;52.348;20.928;2023-02-03T11:01:41;3.67;;;2.05;;
35326;SDS011;21436;52.348;20.928;2023-02-03T11:07:03;6.68;;;2.50;;
35326;SDS011;21436;52.348;20.928;2023-02-03T11:09:37;4.20;;;2.50;;
35326;SDS011;21436;52.348;20.928;2023-02-03T11:14:42;7.80;;;2.75;;
35326;SDS011;21436;52.348;20.928;2023-02-03T11:17:13;7.20;;;2.78;;
35326;SDS011;21436;52.348;20.928;2023-02-03T11:19:50;5.38;;;1.95;;
35326;SDS011;21436;52.348;20.928;2023-02-03T11:22:30;5.80;;;2.58;;
35326;SDS011;21436;52.348;20.928;2023-02-03T11:25:15;5.35;;;2.53;;
35326;SDS011;21436;52.348;20.928;2023-02-03T11:27:48;6.40;;;2.10;;
35326;SDS011;21436;52.348;20.928;2023-02-03T11:30:19;7.38;;;2.53;;
35326;SDS011;21436;52.348;20.928;2023-02-03T11:32:50;6.32;;;2.30;;
35326;SDS011;21436;52.348;20.928;2023-02-03T11:35:20;5.13;;;2.42;;
35326;SDS011;21436;52.348;20.928;2023-02-03T11:37:51;9.70;;;3.03;;
35326;SDS011;21436;52.348;20.928;2023-02-03T11:43:13;6.10;;;2.88;;
35326;SDS011;21436;52.348;20.928;2023-02-03T11:45:50;8.05;;;2.45;;
35326;SDS011;21436;52.348;20.928;2023-02-03T11:54:15;3.92;;;1.90;;
35326;SDS011;21436;52.348;20.928;2023-02-03T11:59:44;5.30;;;2.33;;
35326;SDS011;21436;52.348;20.928;2023-02-03T12:02:31;5.47;;;2.65;;
35326;SDS011;21436;52.348;20.928;2023-02-03T12:16:48;6.70;;;2.30;;
35326;SDS011;21436;52.348;20.928;2023-02-03T12:30:13;8.98;;;2.78;;
35326;SDS011;21436;52.348;20.928;2023-02-03T12:35:54;6.78;;;2.53;;
35326;SDS011;21436;52.348;20.928;2023-02-03T12:38:37;7.93;;;2.60;;
35326;SDS011;21436;52.348;20.928;2023-02-03T12:41:14;5.80;;;2.97;;
35326;SDS011;21436;52.348;20.928;2023-02-03T12:43:45;7.22;;;2.90;;
35326;SDS011;21436;52.348;20.928;2023-02-03T12:56:53;7.75;;;2.90;;
35326;SDS011;21436;52.348;20.928;2023-02-03T12:59:22;5.85;;;3.13;;
35326;SDS011;21436;52.348;20.928;2023-02-03T13:01:55;6.68;;;3.22;;
35326;SDS011;21436;52.348;20.928;2023-02-03T13:04:49;5.63;;;2.85;;
35326;SDS011;21436;52.348;20.928;2023-02-03T13:07:24;7.22;;;2.90;;
35326;SDS011;21436;52.348;20.928;2023-02-03T13:12:56;4.82;;;2.72;;
35326;SDS011;21436;52.348;20.928;2023-02-03T13:20:37;10.80;;;3.40;;
35326;SDS011;21436;52.348;20.928;2023-02-03T13:23:06;9.45;;;3.53;;
35326;SDS011;21436;52.348;20.928;2023-02-03T13:25:48;7.30;;;3.40;;
35326;SDS011;21436;52.348;20.928;2023-02-03T13:31:11;10.02;;;4.20;;
35326;SDS011;21436;52.348;20.928;2023-02-03T13:43:02;14.82;;;5.25;;
35326;SDS011;21436;52.348;20.928;2023-02-03T13:45:37;13.80;;;6.07;;
35326;SDS011;21436;52.348;20.928;2023-02-03T13:48:20;15.80;;;6.68;;
35326;SDS011;21436;52.348;20.928;2023-02-03T13:53:47;14.43;;;5.50;;
35326;SDS011;21436;52.348;20.928;2023-02-03T13:56:18;18.67;;;7.20;;
35326;SDS011;21436;52.348;20.928;2023-02-03T14:01:41;15.38;;;5.18;;
35326;SDS011;21436;52.348;20.928;2023-02-03T14:07:01;13.40;;;5.35;;
35326;SDS011;21436;52.348;20.928;2023-02-03T14:20:32;14.60;;;5.47;;
35326;SDS011;21436;52.348;20.928;2023-02-03T14:23:07;17.42;;;7.05;;
35326;SDS011;21436;52.348;20.928;2023-02-03T14:25:58;18.17;;;7.97;;
35326;SDS011;21436;52.348;20.928;2023-02-03T14:28:36;16.35;;;7.10;;
35326;SDS011;21436;52.348;20.928;2023-02-03T14:35:38;15.00;;;7.53;;
35326;SDS011;21436;52.348;20.928;2023-02-03T14:38:08;22.92;;;10.25;;
35326;SDS011;21436;52.348;20.928;2023-02-03T14:43:27;26.08;;;9.63;;
35326;SDS011;21436;52.348;20.928;2023-02-03T14:51:49;26.80;;;12.27;;
35326;SDS011;21436;52.348;20.928;2023-02-03T14:54:43;27.55;;;11.30;;
35326;SDS011;21436;52.348;20.928;2023-02-03T14:59:58;25.35;;;11.65;;
35326;SDS011;21436;52.348;20.928;2023-02-03T15:02:33;21.30;;;10.15;;
35326;SDS011;21436;52.348;20.928;2023-02-03T15:07:51;16.08;;;8.32;;
35326;SDS011;21436;52.348;20.928;2023-02-03T15:10:23;24.13;;;11.05;;
35326;SDS011;21436;52.348;20.928;2023-02-03T15:12:54;25.83;;;10.73;;
35326;SDS011;21436;52.348;20.928;2023-02-03T15:15:26;24.63;;;11.65;;
35326;SDS011;21436;52.348;20.928;2023-02-03T15:23:01;23.35;;;10.52;;
35326;SDS011;21436;52.348;20.928;2023-02-03T15:25:30;21.40;;;7.82;;
35326;SDS011;21436;52.348;20.928;2023-02-03T15:28:09;19.70;;;9.40;;
35326;SDS011;21436;52.348;20.928;2023-02-03T15:30:46;19.35;;;8.13;;
35326;SDS011;21436;52.348;20.928;2023-02-03T15:33:20;22.48;;;9.00;;
35326;SDS011;21436;52.348;20.928;2023-02-03T15:35:50;29.27;;;11.20;;
35326;SDS011;21436;52.348;20.928;2023-02-03T15:38:28;29.33;;;9.35;;
35326;SDS011;21436;52.348;20.928;2023-02-03T15:41:02;30.25;;;11.98;;
35326;SDS011;21436;52.348;20.928;2023-02-03T15:43:35;25.90;;;11.32;;
35326;SDS011;21436;52.348;20.928;2023-02-03T15:46:05;21.83;;;11.13;;
35326;SDS011;21436;52.348;20.928;2023-02-03T15:48:41;22.92;;;11.63;;
35326;SDS011;21436;52.348;20.928;2023-02-03T15:51:14;26.63;;;12.38;;
35326;SDS011;21436;52.348;20.928;2023-02-03T15:54:04;24.70;;;10.95;;
35326;SDS011;21436;52.348;20.928;2023-02-03T15:56:39;23.60;;;10.80;;
35326;SDS011;21436;52.348;20.928;2023-02-03T15:59:21;21.80;;;7.65;;
35326;SDS011;21436;52.348;20.928;2023-02-03T16:01:52;20.23;;;8.20;;
35326;SDS011;21436;52.348;20.928;2023-02-03T16:04:20;19.60;;;8.13;;
35326;SDS011;21436;52.348;20.928;2023-02-03T16:06:48;16.38;;;7.45;;
35326;SDS011;21436;52.348;20.928;2023-02-03T16:09:26;13.23;;;5.72;;
35326;SDS011;21436;52.348;20.928;2023-02-03T16:12:43;19.60;;;7.47;;
35326;SDS011;21436;52.348;20.928;2023-02-03T16:14:59;20.27;;;8.88;;
35326;SDS011;21436;52.348;20.928;2023-02-03T16:17:32;16.45;;;7.57;;
35326;SDS011;21436;52.348;20.928;2023-02-03T16:20:25;18.58;;;9.43;;
35326;SDS011;21436;52.348;20.928;2023-02-03T16:22:59;22.65;;;10.52;;
35326;SDS011;21436;52.348;20.928;2023-02-03T16:25:31;22.45;;;11.13;;
35326;SDS011;21436;52.348;20.928;2023-02-03T16:28:01;21.02;;;10.27;;
35326;SDS011;21436;52.348;20.928;2023-02-03T16:30:59;23.85;;;9.93;;
35326;SDS011;21436;52.348;20.928;2023-02-03T16:33:48;27.30;;;11.63;;
35326;SDS011;21436;52.348;20.928;2023-02-03T16:36:40;16.27;;;7.82;;
35326;SDS011;21436;52.348;20.928;2023-02-03T16:39:28;25.85;;;9.60;;
35326;SDS011;21436;52.348;20.928;2023-02-03T16:42:18;15.75;;;6.40;;
35326;SDS011;21436;52.348;20.928;2023-02-03T16:45:11;16.42;;;8.77;;
35326;SDS011;21436;52.348;20.928;2023-02-03T16:48:00;19.70;;;8.93;;
35326;SDS011;21436;52.348;20.928;2023-02-03T16:50:48;30.77;;;12.68;;
35326;SDS011;21436;52.348;20.928;2023-02-03T16:53:34;28.23;;;12.35;;
35326;SDS011;21436;52.348;20.928;2023-02-03T16:56:03;25.77;;;11.32;;
35326;SDS011;21436;52.348;20.928;2023-02-03T16:58:31;21.00;;;9.43;;
35326;SDS011;21436;52.348;20.928;2023-02-03T17:00:59;30.10;;;12.90;;
35326;SDS011;21436;52.348;20.928;2023-02-03T17:03:30;28.88;;;13.32;;
35326;SDS011;21436;52.348;20.928;2023-02-03T17:06:04;29.27;;;10.95;;
35326;SDS011;21436;52.348;20.928;2023-02-03T17:08:34;33.33;;;15.13;;
35326;SDS011;21436;52.348;20.928;2023-02-03T17:11:04;36.17;;;14.48;;
35326;SDS011;21436;52.348;20.928;2023-02-03T17:13:34;27.73;;;13.70;;
35326;SDS011;21436;52.348;20.928;2023-02-03T17:16:06;21.25;;;10.30;;
35326;SDS011;21436;52.348;20.928;2023-02-03T17:18:37;29.40;;;12.25;;
35326;SDS011;21436;52.348;20.928;2023-02-03T17:21:06;28.75;;;12.95;;
35326;SDS011;21436;52.348;20.928;2023-02-03T17:23:37;38.78;;;16.60;;
35326;SDS011;21436;52.348;20.928;2023-02-03T17:26:05;27.10;;;13.02;;
35326;SDS011;21436;52.348;20.928;2023-02-03T17:28:34;21.33;;;7.93;;
35326;SDS011;21436;52.348;20.928;2023-02-03T17:31:03;27.20;;;12.60;;
35326;SDS011;21436;52.348;20.928;2023-02-03T17:33:34;30.45;;;12.50;;
35326;SDS011;21436;52.348;20.928;2023-02-03T17:36:04;31.20;;;12.70;;
35326;SDS011;21436;52.348;20.928;2023-02-03T17:38:41;33.40;;;14.88;;